sensor_id;sensor_type;location;lat;lon;timestamp;P1;durP1;ratioP1;P2;durP2;ratioP2
7027;SDS011;3555;53.248;10.336;2023-05-07T00:01:20;9.57;;;7.07;;
7027;SDS011;3555;53.248;10.336;2023-05-07T00:03:47;8.37;;;6.90;;
7027;SDS011;3555;53.248;10.336;2023-05-07T00:06:14;8.47;;;6.73;;
7027;SDS011;3555;53.248;10.336;2023-05-07T00:08:44;11.13;;;6.87;;
7027;SDS011;3555;53.248;10.336;2023-05-07T00:11:16;7.70;;;6.47;;
7027;SDS011;3555;53.248;10.336;2023-05-07T00:13:43;8.40;;;6.87;;
7027;SDS011;3555;53.248;10.336;2023-05-07T00:16:10;9.07;;;6.97;;
7027;SDS011;3555;53.248;10.336;2023-05-07T00:21:36;9.77;;;7.07;;
7027;SDS011;3555;53.248;10.336;2023-05-07T00:24:06;7.57;;;6.47;;
7027;SDS011;3555;53.248;10.336;2023-05-07T00:26:40;7.53;;;6.10;;
7027;SDS011;3555;53.248;10.336;2023-05-07T00:29:08;9.30;;;6.90;;
7027;SDS011;3555;53.248;10.336;2023-05-07T00:31:36;7.90;;;7.03;;
7027;SDS011;3555;53.248;10.336;2023-05-07T00:34:16;8.23;;;6.13;;
7027;SDS011;3555;53.248;10.336;2023-05-07T00:36:58;7.27;;;6.40;;
7027;SDS011;3555;53.248;10.336;2023-05-07T00:39:33;8.70;;;6.90;;
7027;SDS011;3555;53.248;10.336;2023-05-07T00:42:01;8.33;;;7.00;;
7027;SDS011;3555;53.248;10.336;2023-05-07T00:44:31;8.00;;;6.80;;
7027;SDS011;3555;53.248;10.336;2023-05-07T00:46:58;7.23;;;6.53;;
7027;SDS011;3555;53.248;10.336;2023-05-07T00:49:32;8.43;;;7.00;;
7027;SDS011;3555;53.248;10.336;2023-05-07T00:52:07;7.90;;;6.90;;
7027;SDS011;3555;53.248;10.336;2023-05-07T00:54:35;8.00;;;6.67;;
7027;SDS011;3555;53.248;10.336;2023-05-07T00:57:03;7.73;;;6.47;;
7027;SDS011;3555;53.248;10.336;2023-05-07T00:59:32;8.17;;;7.07;;
7027;SDS011;3555;53.248;10.336;2023-05-07T01:02:00;6.93;;;6.13;;
7027;SDS011;3555;53.248;10.336;2023-05-07T01:04:27;7.50;;;6.40;;
7027;SDS011;3555;53.248;10.336;2023-05-07T01:06:56;7.80;;;6.93;;
7027;SDS011;3555;53.248;10.336;2023-05-07T01:09:28;7.73;;;6.60;;
7027;SDS011;3555;53.248;10.336;2023-05-07T01:12:06;7.37;;;6.57;;
7027;SDS011;3555;53.248;10.336;2023-05-07T01:14:34;7.43;;;6.40;;
7027;SDS011;3555;53.248;10.336;2023-05-07T01:17:01;7.30;;;6.60;;
7027;SDS011;3555;53.248;10.336;2023-05-07T01:19:30;7.57;;;6.23;;
7027;SDS011;3555;53.248;10.336;2023-05-07T01:21:59;8.67;;;7.03;;
7027;SDS011;3555;53.248;10.336;2023-05-07T01:27:29;7.90;;;6.43;;
7027;SDS011;3555;53.248;10.336;2023-05-07T01:29:55;8.50;;;6.70;;
7027;SDS011;3555;53.248;10.336;2023-05-07T01:32:23;7.77;;;6.73;;
7027;SDS011;3555;53.248;10.336;2023-05-07T01:34:55;8.77;;;6.80;;
7027;SDS011;3555;53.248;10.336;2023-05-07T01:37:23;7.33;;;6.63;;
7027;SDS011;3555;53.248;10.336;2023-05-07T01:39:53;7.03;;;6.30;;
7027;SDS011;3555;53.248;10.336;2023-05-07T01:42:22;8.97;;;7.40;;
7027;SDS011;3555;53.248;10.336;2023-05-07T01:44:50;7.13;;;6.33;;
7027;SDS011;3555;53.248;10.336;2023-05-07T01:47:17;7.97;;;7.17;;
7027;SDS011;3555;53.248;10.336;2023-05-07T01:49:45;6.77;;;6.07;;
7027;SDS011;3555;53.248;10.336;2023-05-07T01:52:12;7.10;;;6.40;;
7027;SDS011;3555;53.248;10.336;2023-05-07T01:54:51;7.50;;;6.70;;
7027;SDS011;3555;53.248;10.336;2023-05-07T01:57:20;7.83;;;6.53;;
7027;SDS011;3555;53.248;10.336;2023-05-07T01:59:49;7.73;;;6.47;;
7027;SDS011;3555;53.248;10.336;2023-05-07T02:02:17;7.70;;;6.63;;
7027;SDS011;3555;53.248;10.336;2023-05-07T02:04:44;8.47;;;6.43;;
7027;SDS011;3555;53.248;10.336;2023-05-07T02:07:10;7.77;;;6.80;;
7027;SDS011;3555;53.248;10.336;2023-05-07T02:09:42;8.70;;;7.13;;
7027;SDS011;3555;53.248;10.336;2023-05-07T02:12:09;8.17;;;7.33;;
7027;SDS011;3555;53.248;10.336;2023-05-07T02:14:37;8.23;;;7.17;;
7027;SDS011;3555;53.248;10.336;2023-05-07T02:17:04;7.93;;;7.10;;
7027;SDS011;3555;53.248;10.336;2023-05-07T02:19:31;9.70;;;7.33;;
7027;SDS011;3555;53.248;10.336;2023-05-07T02:21:58;9.10;;;7.57;;
7027;SDS011;3555;53.248;10.336;2023-05-07T02:24:26;8.17;;;7.17;;
7027;SDS011;3555;53.248;10.336;2023-05-07T02:26:52;9.10;;;7.73;;
7027;SDS011;3555;53.248;10.336;2023-05-07T02:29:19;9.70;;;7.87;;
7027;SDS011;3555;53.248;10.336;2023-05-07T02:31:48;9.53;;;8.33;;
7027;SDS011;3555;53.248;10.336;2023-05-07T02:34:15;9.73;;;8.23;;
7027;SDS011;3555;53.248;10.336;2023-05-07T02:36:42;11.27;;;8.33;;
7027;SDS011;3555;53.248;10.336;2023-05-07T02:39:10;10.13;;;7.93;;
7027;SDS011;3555;53.248;10.336;2023-05-07T02:41:37;8.60;;;7.40;;
7027;SDS011;3555;53.248;10.336;2023-05-07T02:44:04;8.47;;;7.57;;
7027;SDS011;3555;53.248;10.336;2023-05-07T02:46:31;9.13;;;7.90;;
7027;SDS011;3555;53.248;10.336;2023-05-07T02:49:00;9.80;;;7.70;;
7027;SDS011;3555;53.248;10.336;2023-05-07T02:51:27;7.97;;;7.17;;
7027;SDS011;3555;53.248;10.336;2023-05-07T02:53:56;8.57;;;7.50;;
7027;SDS011;3555;53.248;10.336;2023-05-07T02:56:22;9.07;;;7.73;;
7027;SDS011;3555;53.248;10.336;2023-05-07T02:58:51;9.67;;;8.00;;
7027;SDS011;3555;53.248;10.336;2023-05-07T03:01:18;9.20;;;7.63;;
7027;SDS011;3555;53.248;10.336;2023-05-07T03:03:45;9.23;;;7.63;;
7027;SDS011;3555;53.248;10.336;2023-05-07T03:06:14;8.90;;;7.90;;
7027;SDS011;3555;53.248;10.336;2023-05-07T03:08:41;8.63;;;7.10;;
7027;SDS011;3555;53.248;10.336;2023-05-07T03:11:10;8.43;;;7.50;;
7027;SDS011;3555;53.248;10.336;2023-05-07T03:13:37;10.63;;;7.57;;
7027;SDS011;3555;53.248;10.336;2023-05-07T03:16:04;9.77;;;7.77;;
7027;SDS011;3555;53.248;10.336;2023-05-07T03:18:32;8.67;;;7.13;;
7027;SDS011;3555;53.248;10.336;2023-05-07T03:20:59;9.13;;;7.90;;
7027;SDS011;3555;53.248;10.336;2023-05-07T03:23:28;9.70;;;7.47;;
7027;SDS011;3555;53.248;10.336;2023-05-07T03:25:55;9.47;;;8.10;;
7027;SDS011;3555;53.248;10.336;2023-05-07T03:28:22;9.00;;;7.43;;
7027;SDS011;3555;53.248;10.336;2023-05-07T03:30:49;9.47;;;7.80;;
7027;SDS011;3555;53.248;10.336;2023-05-07T03:33:16;10.20;;;7.93;;
7027;SDS011;3555;53.248;10.336;2023-05-07T03:35:43;10.37;;;8.23;;
7027;SDS011;3555;53.248;10.336;2023-05-07T03:38:11;13.27;;;7.90;;
7027;SDS011;3555;53.248;10.336;2023-05-07T03:40:40;9.87;;;8.07;;
7027;SDS011;3555;53.248;10.336;2023-05-07T03:43:08;10.03;;;8.17;;
7027;SDS011;3555;53.248;10.336;2023-05-07T03:45:36;9.30;;;7.87;;
7027;SDS011;3555;53.248;10.336;2023-05-07T03:48:03;11.00;;;7.77;;
7027;SDS011;3555;53.248;10.336;2023-05-07T03:50:30;9.53;;;8.07;;
7027;SDS011;3555;53.248;10.336;2023-05-07T03:52:57;8.83;;;7.57;;
7027;SDS011;3555;53.248;10.336;2023-05-07T03:55:24;8.77;;;7.70;;
7027;SDS011;3555;53.248;10.336;2023-05-07T03:57:53;8.47;;;7.50;;
7027;SDS011;3555;53.248;10.336;2023-05-07T04:00:20;9.83;;;7.77;;
7027;SDS011;3555;53.248;10.336;2023-05-07T04:02:47;9.30;;;7.67;;
7027;SDS011;3555;53.248;10.336;2023-05-07T04:05:14;9.77;;;8.33;;
7027;SDS011;3555;53.248;10.336;2023-05-07T04:07:41;10.90;;;8.40;;
7027;SDS011;3555;53.248;10.336;2023-05-07T04:10:08;9.20;;;7.63;;
7027;SDS011;3555;53.248;10.336;2023-05-07T04:12:36;11.50;;;7.97;;
7027;SDS011;3555;53.248;10.336;2023-05-07T04:15:05;10.10;;;8.30;;
7027;SDS011;3555;53.248;10.336;2023-05-07T04:17:32;11.73;;;8.20;;
7027;SDS011;3555;53.248;10.336;2023-05-07T04:19:59;8.87;;;7.97;;
7027;SDS011;3555;53.248;10.336;2023-05-07T04:22:26;9.07;;;7.40;;
7027;SDS011;3555;53.248;10.336;2023-05-07T04:24:53;9.40;;;7.67;;
7027;SDS011;3555;53.248;10.336;2023-05-07T04:27:20;9.97;;;8.27;;
7027;SDS011;3555;53.248;10.336;2023-05-07T04:29:47;9.33;;;8.00;;
7027;SDS011;3555;53.248;10.336;2023-05-07T04:32:16;10.93;;;7.97;;
7027;SDS011;3555;53.248;10.336;2023-05-07T04:34:43;10.67;;;8.23;;
7027;SDS011;3555;53.248;10.336;2023-05-07T04:37:10;9.40;;;8.03;;
7027;SDS011;3555;53.248;10.336;2023-05-07T04:39:37;10.50;;;8.67;;
7027;SDS011;3555;53.248;10.336;2023-05-07T04:42:04;11.13;;;8.27;;
7027;SDS011;3555;53.248;10.336;2023-05-07T04:44:33;10.50;;;8.27;;
7027;SDS011;3555;53.248;10.336;2023-05-07T04:47:02;11.80;;;8.30;;
7027;SDS011;3555;53.248;10.336;2023-05-07T04:49:31;9.57;;;7.93;;
7027;SDS011;3555;53.248;10.336;2023-05-07T04:52:01;10.27;;;7.90;;
7027;SDS011;3555;53.248;10.336;2023-05-07T04:54:41;10.17;;;7.50;;
7027;SDS011;3555;53.248;10.336;2023-05-07T04:57:08;9.50;;;7.60;;
7027;SDS011;3555;53.248;10.336;2023-05-07T04:59:35;8.73;;;7.77;;
7027;SDS011;3555;53.248;10.336;2023-05-07T05:02:03;9.53;;;7.23;;
7027;SDS011;3555;53.248;10.336;2023-05-07T05:04:32;9.93;;;7.50;;
7027;SDS011;3555;53.248;10.336;2023-05-07T05:06:59;9.70;;;7.17;;
7027;SDS011;3555;53.248;10.336;2023-05-07T05:09:26;9.03;;;7.17;;
7027;SDS011;3555;53.248;10.336;2023-05-07T05:11:55;8.77;;;7.33;;
7027;SDS011;3555;53.248;10.336;2023-05-07T05:14:28;11.00;;;8.07;;
7027;SDS011;3555;53.248;10.336;2023-05-07T05:16:55;8.53;;;7.13;;
7027;SDS011;3555;53.248;10.336;2023-05-07T05:19:22;8.80;;;7.23;;
7027;SDS011;3555;53.248;10.336;2023-05-07T05:21:51;8.93;;;6.93;;
7027;SDS011;3555;53.248;10.336;2023-05-07T05:24:18;9.50;;;7.47;;
7027;SDS011;3555;53.248;10.336;2023-05-07T05:26:45;8.80;;;7.10;;
7027;SDS011;3555;53.248;10.336;2023-05-07T05:29:12;11.10;;;7.50;;
7027;SDS011;3555;53.248;10.336;2023-05-07T05:31:39;9.97;;;7.83;;
7027;SDS011;3555;53.248;10.336;2023-05-07T05:34:06;9.40;;;7.40;;
7027;SDS011;3555;53.248;10.336;2023-05-07T05:36:33;8.07;;;6.83;;
7027;SDS011;3555;53.248;10.336;2023-05-07T05:39:02;10.60;;;7.60;;
7027;SDS011;3555;53.248;10.336;2023-05-07T05:41:29;9.83;;;7.57;;
7027;SDS011;3555;53.248;10.336;2023-05-07T05:43:56;8.47;;;6.83;;
7027;SDS011;3555;53.248;10.336;2023-05-07T05:46:23;9.00;;;7.33;;
7027;SDS011;3555;53.248;10.336;2023-05-07T05:48:50;9.43;;;7.60;;
7027;SDS011;3555;53.248;10.336;2023-05-07T05:51:17;9.30;;;7.63;;
7027;SDS011;3555;53.248;10.336;2023-05-07T05:53:44;8.77;;;7.67;;
7027;SDS011;3555;53.248;10.336;2023-05-07T05:56:13;9.87;;;7.50;;
7027;SDS011;3555;53.248;10.336;2023-05-07T05:58:40;10.07;;;7.43;;
7027;SDS011;3555;53.248;10.336;2023-05-07T06:01:07;9.70;;;7.03;;
7027;SDS011;3555;53.248;10.336;2023-05-07T06:03:36;11.17;;;7.73;;
7027;SDS011;3555;53.248;10.336;2023-05-07T06:06:03;7.83;;;6.67;;
7027;SDS011;3555;53.248;10.336;2023-05-07T06:08:30;7.90;;;6.73;;
7027;SDS011;3555;53.248;10.336;2023-05-07T06:10:58;8.17;;;6.40;;
7027;SDS011;3555;53.248;10.336;2023-05-07T06:13:26;7.57;;;6.30;;
7027;SDS011;3555;53.248;10.336;2023-05-07T06:15:53;7.87;;;6.67;;
7027;SDS011;3555;53.248;10.336;2023-05-07T06:18:20;8.20;;;6.43;;
7027;SDS011;3555;53.248;10.336;2023-05-07T06:20:47;10.10;;;7.03;;
7027;SDS011;3555;53.248;10.336;2023-05-07T06:23:14;10.37;;;6.43;;
7027;SDS011;3555;53.248;10.336;2023-05-07T06:25:42;7.73;;;6.47;;
7027;SDS011;3555;53.248;10.336;2023-05-07T06:28:12;7.23;;;5.90;;
7027;SDS011;3555;53.248;10.336;2023-05-07T06:30:40;8.37;;;6.33;;
7027;SDS011;3555;53.248;10.336;2023-05-07T06:33:07;8.23;;;6.53;;
7027;SDS011;3555;53.248;10.336;2023-05-07T06:35:34;8.27;;;6.10;;
7027;SDS011;3555;53.248;10.336;2023-05-07T06:38:01;9.07;;;6.87;;
7027;SDS011;3555;53.248;10.336;2023-05-07T06:40:27;7.90;;;6.67;;
7027;SDS011;3555;53.248;10.336;2023-05-07T06:42:54;7.17;;;6.20;;
7027;SDS011;3555;53.248;10.336;2023-05-07T06:45:21;8.17;;;5.97;;
7027;SDS011;3555;53.248;10.336;2023-05-07T06:47:50;7.77;;;6.30;;
7027;SDS011;3555;53.248;10.336;2023-05-07T06:50:17;6.93;;;6.17;;
7027;SDS011;3555;53.248;10.336;2023-05-07T06:52:44;6.83;;;6.13;;
7027;SDS011;3555;53.248;10.336;2023-05-07T06:55:11;7.10;;;5.70;;
7027;SDS011;3555;53.248;10.336;2023-05-07T06:57:37;6.77;;;5.80;;
7027;SDS011;3555;53.248;10.336;2023-05-07T07:00:05;7.40;;;6.00;;
7027;SDS011;3555;53.248;10.336;2023-05-07T07:02:34;8.27;;;5.67;;
7027;SDS011;3555;53.248;10.336;2023-05-07T07:05:02;8.83;;;5.80;;
7027;SDS011;3555;53.248;10.336;2023-05-07T07:07:29;6.73;;;5.70;;
7027;SDS011;3555;53.248;10.336;2023-05-07T07:09:56;8.00;;;6.00;;
7027;SDS011;3555;53.248;10.336;2023-05-07T07:12:23;6.93;;;5.77;;
7027;SDS011;3555;53.248;10.336;2023-05-07T07:14:51;6.47;;;5.53;;
7027;SDS011;3555;53.248;10.336;2023-05-07T07:17:17;6.73;;;5.63;;
7027;SDS011;3555;53.248;10.336;2023-05-07T07:19:44;7.83;;;6.20;;
7027;SDS011;3555;53.248;10.336;2023-05-07T07:22:13;7.57;;;6.33;;
7027;SDS011;3555;53.248;10.336;2023-05-07T07:24:39;6.30;;;5.37;;
7027;SDS011;3555;53.248;10.336;2023-05-07T07:27:06;8.13;;;5.80;;
7027;SDS011;3555;53.248;10.336;2023-05-07T07:29:33;7.43;;;5.83;;
7027;SDS011;3555;53.248;10.336;2023-05-07T07:32:00;6.97;;;5.90;;
7027;SDS011;3555;53.248;10.336;2023-05-07T07:34:27;7.77;;;5.57;;
7027;SDS011;3555;53.248;10.336;2023-05-07T07:36:54;6.93;;;5.87;;
7027;SDS011;3555;53.248;10.336;2023-05-07T07:39:22;7.67;;;6.20;;
7027;SDS011;3555;53.248;10.336;2023-05-07T07:41:49;6.93;;;5.70;;
7027;SDS011;3555;53.248;10.336;2023-05-07T07:44:16;7.03;;;5.73;;
7027;SDS011;3555;53.248;10.336;2023-05-07T07:46:43;6.60;;;5.73;;
7027;SDS011;3555;53.248;10.336;2023-05-07T07:49:09;8.30;;;5.90;;
7027;SDS011;3555;53.248;10.336;2023-05-07T07:51:36;8.13;;;5.57;;
7027;SDS011;3555;53.248;10.336;2023-05-07T07:54:03;6.00;;;5.30;;
7027;SDS011;3555;53.248;10.336;2023-05-07T07:56:32;7.83;;;5.37;;
7027;SDS011;3555;53.248;10.336;2023-05-07T07:58:59;7.60;;;5.63;;
7027;SDS011;3555;53.248;10.336;2023-05-07T08:01:26;6.17;;;5.57;;
7027;SDS011;3555;53.248;10.336;2023-05-07T08:03:54;7.37;;;5.43;;
7027;SDS011;3555;53.248;10.336;2023-05-07T08:06:22;5.90;;;4.93;;
7027;SDS011;3555;53.248;10.336;2023-05-07T08:08:50;7.90;;;4.73;;
7027;SDS011;3555;53.248;10.336;2023-05-07T08:11:17;5.80;;;4.80;;
7027;SDS011;3555;53.248;10.336;2023-05-07T08:13:46;6.40;;;5.10;;
7027;SDS011;3555;53.248;10.336;2023-05-07T08:16:13;8.30;;;5.37;;
7027;SDS011;3555;53.248;10.336;2023-05-07T08:18:40;5.63;;;4.73;;
7027;SDS011;3555;53.248;10.336;2023-05-07T08:21:07;6.23;;;5.00;;
7027;SDS011;3555;53.248;10.336;2023-05-07T08:23:34;6.77;;;5.07;;
7027;SDS011;3555;53.248;10.336;2023-05-07T08:26:01;7.23;;;5.27;;
7027;SDS011;3555;53.248;10.336;2023-05-07T08:28:28;5.87;;;5.10;;
7027;SDS011;3555;53.248;10.336;2023-05-07T08:30:56;7.27;;;5.63;;
7027;SDS011;3555;53.248;10.336;2023-05-07T08:33:25;6.57;;;5.47;;
7027;SDS011;3555;53.248;10.336;2023-05-07T08:35:52;5.70;;;4.93;;
7027;SDS011;3555;53.248;10.336;2023-05-07T08:38:19;6.50;;;5.03;;
7027;SDS011;3555;53.248;10.336;2023-05-07T08:40:46;5.30;;;4.70;;
7027;SDS011;3555;53.248;10.336;2023-05-07T08:43:13;6.90;;;5.70;;
7027;SDS011;3555;53.248;10.336;2023-05-07T08:45:40;9.03;;;5.37;;
7027;SDS011;3555;53.248;10.336;2023-05-07T08:48:14;7.93;;;5.57;;
7027;SDS011;3555;53.248;10.336;2023-05-07T08:50:41;6.57;;;4.97;;
7027;SDS011;3555;53.248;10.336;2023-05-07T08:53:08;6.60;;;5.30;;
7027;SDS011;3555;53.248;10.336;2023-05-07T08:55:35;7.50;;;5.50;;
7027;SDS011;3555;53.248;10.336;2023-05-07T08:58:02;5.67;;;4.97;;
7027;SDS011;3555;53.248;10.336;2023-05-07T09:00:29;5.80;;;5.07;;
7027;SDS011;3555;53.248;10.336;2023-05-07T09:02:56;6.07;;;5.40;;
7027;SDS011;3555;53.248;10.336;2023-05-07T09:05:24;6.87;;;5.57;;
7027;SDS011;3555;53.248;10.336;2023-05-07T09:07:52;6.03;;;5.43;;
7027;SDS011;3555;53.248;10.336;2023-05-07T09:10:20;7.93;;;6.10;;
7027;SDS011;3555;53.248;10.336;2023-05-07T09:12:48;6.17;;;5.57;;
7027;SDS011;3555;53.248;10.336;2023-05-07T09:15:15;7.70;;;6.00;;
7027;SDS011;3555;53.248;10.336;2023-05-07T09:17:42;8.37;;;5.53;;
7027;SDS011;3555;53.248;10.336;2023-05-07T09:20:10;6.40;;;5.50;;
7027;SDS011;3555;53.248;10.336;2023-05-07T09:22:40;7.80;;;5.83;;
7027;SDS011;3555;53.248;10.336;2023-05-07T09:25:08;7.33;;;6.20;;
7027;SDS011;3555;53.248;10.336;2023-05-07T09:27:35;8.23;;;5.87;;
7027;SDS011;3555;53.248;10.336;2023-05-07T09:30:04;7.47;;;5.43;;
7027;SDS011;3555;53.248;10.336;2023-05-07T09:32:34;7.53;;;6.00;;
7027;SDS011;3555;53.248;10.336;2023-05-07T09:35:03;7.97;;;5.50;;
7027;SDS011;3555;53.248;10.336;2023-05-07T09:37:30;6.43;;;5.43;;
7027;SDS011;3555;53.248;10.336;2023-05-07T09:39:59;7.70;;;6.23;;
7027;SDS011;3555;53.248;10.336;2023-05-07T09:42:26;7.03;;;5.90;;
7027;SDS011;3555;53.248;10.336;2023-05-07T09:44:53;7.63;;;6.43;;
7027;SDS011;3555;53.248;10.336;2023-05-07T09:47:20;7.00;;;5.77;;
7027;SDS011;3555;53.248;10.336;2023-05-07T09:49:50;8.00;;;5.83;;
7027;SDS011;3555;53.248;10.336;2023-05-07T09:52:22;8.73;;;5.90;;
7027;SDS011;3555;53.248;10.336;2023-05-07T09:54:50;9.60;;;6.40;;
7027;SDS011;3555;53.248;10.336;2023-05-07T09:57:21;7.43;;;5.87;;
7027;SDS011;3555;53.248;10.336;2023-05-07T09:59:52;7.83;;;6.47;;
7027;SDS011;3555;53.248;10.336;2023-05-07T10:02:22;7.87;;;6.37;;
7027;SDS011;3555;53.248;10.336;2023-05-07T10:04:52;8.97;;;6.40;;
7027;SDS011;3555;53.248;10.336;2023-05-07T10:07:20;7.27;;;6.23;;
7027;SDS011;3555;53.248;10.336;2023-05-07T10:09:47;8.30;;;6.23;;
7027;SDS011;3555;53.248;10.336;2023-05-07T10:12:16;7.83;;;6.43;;
7027;SDS011;3555;53.248;10.336;2023-05-07T10:14:46;7.20;;;5.97;;
7027;SDS011;3555;53.248;10.336;2023-05-07T10:17:15;6.57;;;5.80;;
7027;SDS011;3555;53.248;10.336;2023-05-07T10:19:43;6.77;;;6.10;;
7027;SDS011;3555;53.248;10.336;2023-05-07T10:22:11;8.10;;;5.47;;
7027;SDS011;3555;53.248;10.336;2023-05-07T10:24:40;9.03;;;6.57;;
7027;SDS011;3555;53.248;10.336;2023-05-07T10:27:08;10.60;;;6.13;;
7027;SDS011;3555;53.248;10.336;2023-05-07T10:29:38;8.60;;;6.13;;
7027;SDS011;3555;53.248;10.336;2023-05-07T10:32:27;6.47;;;5.30;;
7027;SDS011;3555;53.248;10.336;2023-05-07T10:35:03;5.60;;;4.93;;
7027;SDS011;3555;53.248;10.336;2023-05-07T10:37:35;6.00;;;5.23;;
7027;SDS011;3555;53.248;10.336;2023-05-07T10:40:02;6.27;;;4.80;;
7027;SDS011;3555;53.248;10.336;2023-05-07T10:42:32;5.73;;;5.10;;
7027;SDS011;3555;53.248;10.336;2023-05-07T10:45:10;6.07;;;4.77;;
7027;SDS011;3555;53.248;10.336;2023-05-07T10:50:31;6.40;;;5.13;;
7027;SDS011;3555;53.248;10.336;2023-05-07T10:58:54;5.87;;;5.00;;
7027;SDS011;3555;53.248;10.336;2023-05-07T11:04:19;6.03;;;4.70;;
7027;SDS011;3555;53.248;10.336;2023-05-07T11:07:15;8.27;;;5.17;;
7027;SDS011;3555;53.248;10.336;2023-05-07T11:10:04;6.67;;;5.27;;
7027;SDS011;3555;53.248;10.336;2023-05-07T11:12:50;4.90;;;4.40;;
7027;SDS011;3555;53.248;10.336;2023-05-07T11:15:33;5.00;;;4.50;;
7027;SDS011;3555;53.248;10.336;2023-05-07T11:18:02;5.83;;;4.30;;
7027;SDS011;3555;53.248;10.336;2023-05-07T11:20:45;6.17;;;4.63;;
7027;SDS011;3555;53.248;10.336;2023-05-07T11:26:24;5.10;;;4.60;;
7027;SDS011;3555;53.248;10.336;2023-05-07T11:28:51;7.00;;;4.70;;
7027;SDS011;3555;53.248;10.336;2023-05-07T11:31:23;6.00;;;4.50;;
7027;SDS011;3555;53.248;10.336;2023-05-07T11:33:51;4.90;;;4.37;;
7027;SDS011;3555;53.248;10.336;2023-05-07T11:36:20;5.05;;;4.50;;
7027;SDS011;3555;53.248;10.336;2023-05-07T11:38:48;5.10;;;4.60;;
7027;SDS011;3555;53.248;10.336;2023-05-07T11:41:17;4.90;;;4.23;;
7027;SDS011;3555;53.248;10.336;2023-05-07T11:43:53;5.40;;;3.93;;
7027;SDS011;3555;53.248;10.336;2023-05-07T11:46:21;5.20;;;3.80;;
7027;SDS011;3555;53.248;10.336;2023-05-07T11:48:48;7.55;;;4.15;;
7027;SDS011;3555;53.248;10.336;2023-05-07T11:51:18;4.20;;;3.80;;
7027;SDS011;3555;53.248;10.336;2023-05-07T11:53:46;3.83;;;3.43;;
7027;SDS011;3555;53.248;10.336;2023-05-07T11:56:14;5.43;;;3.78;;
7027;SDS011;3555;53.248;10.336;2023-05-07T11:58:44;4.50;;;3.10;;
7027;SDS011;3555;53.248;10.336;2023-05-07T12:01:13;4.10;;;3.38;;
7027;SDS011;3555;53.248;10.336;2023-05-07T12:03:41;4.53;;;3.60;;
7027;SDS011;3555;53.248;10.336;2023-05-07T12:06:11;6.50;;;3.70;;
7027;SDS011;3555;53.248;10.336;2023-05-07T12:08:39;4.97;;;3.60;;
7027;SDS011;3555;53.248;10.336;2023-05-07T12:11:07;4.70;;;3.30;;
7027;SDS011;3555;53.248;10.336;2023-05-07T12:13:37;5.53;;;3.58;;
7027;SDS011;3555;53.248;10.336;2023-05-07T12:16:05;4.47;;;3.35;;
7027;SDS011;3555;53.248;10.336;2023-05-07T12:18:33;5.05;;;3.60;;
7027;SDS011;3555;53.248;10.336;2023-05-07T12:21:01;4.00;;;3.20;;
7027;SDS011;3555;53.248;10.336;2023-05-07T12:23:30;3.65;;;3.35;;
7027;SDS011;3555;53.248;10.336;2023-05-07T12:25:57;5.10;;;3.30;;
7027;SDS011;3555;53.248;10.336;2023-05-07T12:28:25;4.20;;;3.30;;
7027;SDS011;3555;53.248;10.336;2023-05-07T12:30:53;4.55;;;3.10;;
7027;SDS011;3555;53.248;10.336;2023-05-07T12:33:24;4.60;;;3.58;;
7027;SDS011;3555;53.248;10.336;2023-05-07T12:35:53;3.95;;;3.20;;
7027;SDS011;3555;53.248;10.336;2023-05-07T12:38:21;6.82;;;3.42;;
7027;SDS011;3555;53.248;10.336;2023-05-07T12:40:49;3.63;;;3.33;;
7027;SDS011;3555;53.248;10.336;2023-05-07T12:43:17;3.92;;;3.20;;
7027;SDS011;3555;53.248;10.336;2023-05-07T12:45:45;4.22;;;2.30;;
7027;SDS011;3555;53.248;10.336;2023-05-07T12:48:15;5.05;;;3.22;;
7027;SDS011;3555;53.248;10.336;2023-05-07T12:50:42;5.60;;;3.65;;
7027;SDS011;3555;53.248;10.336;2023-05-07T12:53:10;3.80;;;2.97;;
7027;SDS011;3555;53.248;10.336;2023-05-07T12:55:41;3.13;;;2.65;;
7027;SDS011;3555;53.248;10.336;2023-05-07T12:58:14;5.55;;;2.65;;
7027;SDS011;3555;53.248;10.336;2023-05-07T13:00:44;6.38;;;3.00;;
7027;SDS011;3555;53.248;10.336;2023-05-07T13:03:21;4.93;;;3.25;;
7027;SDS011;3555;53.248;10.336;2023-05-07T13:05:50;3.05;;;2.55;;
7027;SDS011;3555;53.248;10.336;2023-05-07T13:08:27;4.57;;;2.78;;
7027;SDS011;3555;53.248;10.336;2023-05-07T13:10:55;3.65;;;2.45;;
7027;SDS011;3555;53.248;10.336;2023-05-07T13:13:28;3.80;;;2.75;;
7027;SDS011;3555;53.248;10.336;2023-05-07T13:15:55;6.15;;;2.58;;
7027;SDS011;3555;53.248;10.336;2023-05-07T13:18:23;3.72;;;2.45;;
7027;SDS011;3555;53.248;10.336;2023-05-07T13:20:51;4.45;;;2.53;;
7027;SDS011;3555;53.248;10.336;2023-05-07T13:23:18;2.67;;;2.40;;
7027;SDS011;3555;53.248;10.336;2023-05-07T13:25:45;3.92;;;2.60;;
7027;SDS011;3555;53.248;10.336;2023-05-07T13:28:12;2.90;;;2.40;;
7027;SDS011;3555;53.248;10.336;2023-05-07T13:30:38;2.60;;;2.40;;
7027;SDS011;3555;53.248;10.336;2023-05-07T13:33:06;3.05;;;2.63;;
7027;SDS011;3555;53.248;10.336;2023-05-07T13:35:38;2.85;;;2.08;;
7027;SDS011;3555;53.248;10.336;2023-05-07T13:38:05;4.22;;;2.30;;
7027;SDS011;3555;53.248;10.336;2023-05-07T13:40:31;3.35;;;2.40;;
7027;SDS011;3555;53.248;10.336;2023-05-07T13:42:58;2.65;;;2.00;;
7027;SDS011;3555;53.248;10.336;2023-05-07T13:45:27;2.35;;;2.10;;
7027;SDS011;3555;53.248;10.336;2023-05-07T13:47:54;2.88;;;2.30;;
7027;SDS011;3555;53.248;10.336;2023-05-07T13:50:22;2.08;;;1.80;;
7027;SDS011;3555;53.248;10.336;2023-05-07T13:52:50;2.45;;;1.83;;
7027;SDS011;3555;53.248;10.336;2023-05-07T13:55:17;2.80;;;2.00;;
7027;SDS011;3555;53.248;10.336;2023-05-07T13:57:44;2.30;;;1.90;;
7027;SDS011;3555;53.248;10.336;2023-05-07T14:00:12;3.58;;;2.50;;
7027;SDS011;3555;53.248;10.336;2023-05-07T14:02:39;3.72;;;2.30;;
7027;SDS011;3555;53.248;10.336;2023-05-07T14:05:06;3.38;;;2.10;;
7027;SDS011;3555;53.248;10.336;2023-05-07T14:07:34;4.18;;;2.15;;
7027;SDS011;3555;53.248;10.336;2023-05-07T14:10:02;2.22;;;2.03;;
7027;SDS011;3555;53.248;10.336;2023-05-07T14:12:31;2.90;;;2.00;;
7027;SDS011;3555;53.248;10.336;2023-05-07T14:14:58;2.22;;;2.03;;
7027;SDS011;3555;53.248;10.336;2023-05-07T14:17:25;3.55;;;1.60;;
7027;SDS011;3555;53.248;10.336;2023-05-07T14:19:52;3.53;;;1.92;;
7027;SDS011;3555;53.248;10.336;2023-05-07T14:22:20;3.28;;;1.88;;
7027;SDS011;3555;53.248;10.336;2023-05-07T14:24:47;2.20;;;1.70;;
7027;SDS011;3555;53.248;10.336;2023-05-07T14:27:16;2.03;;;1.80;;
7027;SDS011;3555;53.248;10.336;2023-05-07T14:29:43;1.90;;;1.70;;
7027;SDS011;3555;53.248;10.336;2023-05-07T14:32:10;4.15;;;1.92;;
7027;SDS011;3555;53.248;10.336;2023-05-07T14:34:38;2.00;;;1.70;;
7027;SDS011;3555;53.248;10.336;2023-05-07T14:37:05;1.83;;;1.55;;
7027;SDS011;3555;53.248;10.336;2023-05-07T14:39:31;1.83;;;1.58;;
7027;SDS011;3555;53.248;10.336;2023-05-07T14:41:58;2.67;;;1.98;;
7027;SDS011;3555;53.248;10.336;2023-05-07T14:44:27;3.08;;;1.50;;
7027;SDS011;3555;53.248;10.336;2023-05-07T14:46:54;2.28;;;1.92;;
7027;SDS011;3555;53.248;10.336;2023-05-07T14:49:21;2.30;;;2.00;;
7027;SDS011;3555;53.248;10.336;2023-05-07T14:51:48;3.53;;;1.63;;
7027;SDS011;3555;53.248;10.336;2023-05-07T14:54:15;2.50;;;1.80;;
7027;SDS011;3555;53.248;10.336;2023-05-07T14:56:42;3.40;;;1.70;;
7027;SDS011;3555;53.248;10.336;2023-05-07T14:59:09;3.80;;;1.85;;
7027;SDS011;3555;53.248;10.336;2023-05-07T15:01:38;2.58;;;1.80;;
7027;SDS011;3555;53.248;10.336;2023-05-07T15:04:10;4.68;;;1.70;;
7027;SDS011;3555;53.248;10.336;2023-05-07T15:06:37;2.58;;;1.90;;
7027;SDS011;3555;53.248;10.336;2023-05-07T15:09:04;3.65;;;1.80;;
7027;SDS011;3555;53.248;10.336;2023-05-07T15:11:31;1.98;;;1.50;;
7027;SDS011;3555;53.248;10.336;2023-05-07T15:13:58;2.97;;;1.95;;
7027;SDS011;3555;53.248;10.336;2023-05-07T15:16:25;3.13;;;2.17;;
7027;SDS011;3555;53.248;10.336;2023-05-07T15:18:53;3.25;;;1.60;;
7027;SDS011;3555;53.248;10.336;2023-05-07T15:21:20;2.10;;;1.67;;
7027;SDS011;3555;53.248;10.336;2023-05-07T15:23:47;3.75;;;1.80;;
7027;SDS011;3555;53.248;10.336;2023-05-07T15:26:14;3.30;;;1.70;;
7027;SDS011;3555;53.248;10.336;2023-05-07T15:28:41;2.45;;;2.00;;